Terminal Aerodrome Forecast
Issued by NWS

Home | Current Version | Previous Version | Text Only | Print | Product List | Glossary On
Versions: 1 2 3 4 5 6 7 8 9 10 11 12
000
FTUS44 KLZK 230500 RRA
TAFLIT
TAF
KLIT 230549Z 2306/2406 00000KT P6SM SKC
      TEMPO 2310/2313 4SM BR
     FM231300 29005KT P6SM BKN150
     FM231800 30005KT P6SM SCT050
     FM240000 32003KT P6SM FEW250=

USA.gov is the U.S. government's official web portal to all federal, state and local government web resources and services.